sensor_id;sensor_type;location;lat;lon;timestamp;temperature;humidity
18624;DHT22;9441;51.420;7.036;2022-12-10T00:00:30;1.50;99.90
18624;DHT22;9441;51.420;7.036;2022-12-10T00:01:32;1.50;99.90
18624;DHT22;9441;51.420;7.036;2022-12-10T00:02:34;1.50;99.90
18624;DHT22;9441;51.420;7.036;2022-12-10T00:03:37;1.50;99.90
18624;DHT22;9441;51.420;7.036;2022-12-10T00:04:39;1.60;99.90
18624;DHT22;9441;51.420;7.036;2022-12-10T00:05:41;1.60;99.90
18624;DHT22;9441;51.420;7.036;2022-12-10T00:06:43;1.60;99.90
18624;DHT22;9441;51.420;7.036;2022-12-10T00:07:45;1.60;99.90
18624;DHT22;9441;51.420;7.036;2022-12-10T00:08:46;1.50;99.90
18624;DHT22;9441;51.420;7.036;2022-12-10T00:09:48;1.50;99.90
18624;DHT22;9441;51.420;7.036;2022-12-10T00:10:49;1.50;99.90
18624;DHT22;9441;51.420;7.036;2022-12-10T00:11:51;1.50;99.90
18624;DHT22;9441;51.420;7.036;2022-12-10T00:12:52;1.50;99.90
18624;DHT22;9441;51.420;7.036;2022-12-10T00:13:54;1.50;99.90
18624;DHT22;9441;51.420;7.036;2022-12-10T00:14:55;1.50;99.90
18624;DHT22;9441;51.420;7.036;2022-12-10T00:15:59;1.40;99.90
18624;DHT22;9441;51.420;7.036;2022-12-10T00:17:00;1.30;99.90
18624;DHT22;9441;51.420;7.036;2022-12-10T00:18:02;1.20;99.90
18624;DHT22;9441;51.420;7.036;2022-12-10T00:19:04;1.10;99.90
18624;DHT22;9441;51.420;7.036;2022-12-10T00:20:07;1.10;99.90
18624;DHT22;9441;51.420;7.036;2022-12-10T00:21:11;1.20;99.90
18624;DHT22;9441;51.420;7.036;2022-12-10T00:22:13;1.30;99.90
18624;DHT22;9441;51.420;7.036;2022-12-10T00:23:15;1.30;99.90
18624;DHT22;9441;51.420;7.036;2022-12-10T00:24:16;1.40;99.90
18624;DHT22;9441;51.420;7.036;2022-12-10T00:25:18;1.50;99.90
18624;DHT22;9441;51.420;7.036;2022-12-10T00:26:21;1.50;99.90
18624;DHT22;9441;51.420;7.036;2022-12-10T00:27:24;1.50;99.90
18624;DHT22;9441;51.420;7.036;2022-12-10T00:28:25;1.50;99.90
18624;DHT22;9441;51.420;7.036;2022-12-10T00:29:27;1.50;99.90
18624;DHT22;9441;51.420;7.036;2022-12-10T00:30:29;1.40;99.90
18624;DHT22;9441;51.420;7.036;2022-12-10T00:31:34;1.20;99.90
18624;DHT22;9441;51.420;7.036;2022-12-10T00:32:36;1.10;99.90
18624;DHT22;9441;51.420;7.036;2022-12-10T00:33:37;1.00;99.90
18624;DHT22;9441;51.420;7.036;2022-12-10T00:34:41;1.10;99.90
18624;DHT22;9441;51.420;7.036;2022-12-10T00:35:43;1.20;99.90
18624;DHT22;9441;51.420;7.036;2022-12-10T00:36:46;1.20;99.90
18624;DHT22;9441;51.420;7.036;2022-12-10T00:37:48;1.20;99.90
18624;DHT22;9441;51.420;7.036;2022-12-10T00:38:50;1.10;99.90
18624;DHT22;9441;51.420;7.036;2022-12-10T00:39:53;1.10;99.90
18624;DHT22;9441;51.420;7.036;2022-12-10T00:40:54;1.00;99.90
18624;DHT22;9441;51.420;7.036;2022-12-10T00:41:56;0.90;99.90
18624;DHT22;9441;51.420;7.036;2022-12-10T00:43:00;0.80;99.90
18624;DHT22;9441;51.420;7.036;2022-12-10T00:44:01;0.70;99.90
18624;DHT22;9441;51.420;7.036;2022-12-10T00:45:04;0.80;99.90
18624;DHT22;9441;51.420;7.036;2022-12-10T00:46:05;0.90;99.90
18624;DHT22;9441;51.420;7.036;2022-12-10T00:47:08;1.00;99.90
18624;DHT22;9441;51.420;7.036;2022-12-10T00:48:09;1.00;99.90
18624;DHT22;9441;51.420;7.036;2022-12-10T00:49:11;1.00;99.90
18624;DHT22;9441;51.420;7.036;2022-12-10T00:50:13;1.00;99.90
18624;DHT22;9441;51.420;7.036;2022-12-10T00:51:17;1.10;99.90
18624;DHT22;9441;51.420;7.036;2022-12-10T00:52:19;1.00;99.90
18624;DHT22;9441;51.420;7.036;2022-12-10T00:53:21;1.10;99.90
18624;DHT22;9441;51.420;7.036;2022-12-10T00:54:22;1.10;99.90
18624;DHT22;9441;51.420;7.036;2022-12-10T00:55:24;1.10;99.90
18624;DHT22;9441;51.420;7.036;2022-12-10T00:56:26;0.90;99.90
18624;DHT22;9441;51.420;7.036;2022-12-10T00:57:29;0.90;99.90
18624;DHT22;9441;51.420;7.036;2022-12-10T00:58:32;1.00;99.90
18624;DHT22;9441;51.420;7.036;2022-12-10T00:59:34;1.00;99.90
18624;DHT22;9441;51.420;7.036;2022-12-10T01:00:35;1.00;99.90
18624;DHT22;9441;51.420;7.036;2022-12-10T01:01:39;1.00;99.90
18624;DHT22;9441;51.420;7.036;2022-12-10T01:02:40;1.00;99.90
18624;DHT22;9441;51.420;7.036;2022-12-10T01:03:43;1.00;99.90
18624;DHT22;9441;51.420;7.036;2022-12-10T01:04:46;1.00;99.90
18624;DHT22;9441;51.420;7.036;2022-12-10T01:05:49;1.00;99.90
18624;DHT22;9441;51.420;7.036;2022-12-10T01:06:52;1.10;99.90
18624;DHT22;9441;51.420;7.036;2022-12-10T01:07:54;1.10;99.90
18624;DHT22;9441;51.420;7.036;2022-12-10T01:08:57;1.00;99.90
18624;DHT22;9441;51.420;7.036;2022-12-10T01:10:00;1.00;99.90
18624;DHT22;9441;51.420;7.036;2022-12-10T01:11:01;1.00;99.90
18624;DHT22;9441;51.420;7.036;2022-12-10T01:12:03;0.90;99.90
18624;DHT22;9441;51.420;7.036;2022-12-10T01:13:05;0.70;99.90
18624;DHT22;9441;51.420;7.036;2022-12-10T01:14:09;0.70;99.90
18624;DHT22;9441;51.420;7.036;2022-12-10T01:15:10;0.70;99.90
18624;DHT22;9441;51.420;7.036;2022-12-10T01:16:14;0.70;99.90
18624;DHT22;9441;51.420;7.036;2022-12-10T01:17:18;0.80;99.90
18624;DHT22;9441;51.420;7.036;2022-12-10T01:18:22;0.80;99.90
18624;DHT22;9441;51.420;7.036;2022-12-10T01:19:23;0.80;99.90
18624;DHT22;9441;51.420;7.036;2022-12-10T01:20:25;0.80;99.90
18624;DHT22;9441;51.420;7.036;2022-12-10T01:21:28;0.80;99.90
18624;DHT22;9441;51.420;7.036;2022-12-10T01:22:31;0.80;99.90
18624;DHT22;9441;51.420;7.036;2022-12-10T01:23:33;0.80;99.90
18624;DHT22;9441;51.420;7.036;2022-12-10T01:24:35;0.80;99.90
18624;DHT22;9441;51.420;7.036;2022-12-10T01:25:36;0.70;99.90
18624;DHT22;9441;51.420;7.036;2022-12-10T01:26:38;0.60;99.90
18624;DHT22;9441;51.420;7.036;2022-12-10T01:27:39;0.50;99.90
18624;DHT22;9441;51.420;7.036;2022-12-10T01:28:42;0.40;99.90
18624;DHT22;9441;51.420;7.036;2022-12-10T01:29:43;0.40;99.90
18624;DHT22;9441;51.420;7.036;2022-12-10T01:30:45;0.40;99.90
18624;DHT22;9441;51.420;7.036;2022-12-10T01:31:50;0.60;99.90
18624;DHT22;9441;51.420;7.036;2022-12-10T01:32:52;0.60;99.90
18624;DHT22;9441;51.420;7.036;2022-12-10T01:33:54;0.60;99.90
18624;DHT22;9441;51.420;7.036;2022-12-10T01:34:56;0.70;99.90
18624;DHT22;9441;51.420;7.036;2022-12-10T01:35:57;0.70;99.90
18624;DHT22;9441;51.420;7.036;2022-12-10T01:37:04;0.80;99.90
18624;DHT22;9441;51.420;7.036;2022-12-10T01:38:06;0.80;99.90
18624;DHT22;9441;51.420;7.036;2022-12-10T01:39:12;0.80;99.90
18624;DHT22;9441;51.420;7.036;2022-12-10T01:40:13;0.80;99.90
18624;DHT22;9441;51.420;7.036;2022-12-10T01:41:17;0.70;99.90
18624;DHT22;9441;51.420;7.036;2022-12-10T01:42:19;0.60;99.90
18624;DHT22;9441;51.420;7.036;2022-12-10T01:43:21;0.50;99.90
18624;DHT22;9441;51.420;7.036;2022-12-10T01:46:12;0.40;99.90
18624;DHT22;9441;51.420;7.036;2022-12-10T01:47:13;0.40;99.90
18624;DHT22;9441;51.420;7.036;2022-12-10T01:48:15;0.50;99.90
18624;DHT22;9441;51.420;7.036;2022-12-10T01:49:19;0.60;99.90
18624;DHT22;9441;51.420;7.036;2022-12-10T01:50:21;0.60;99.90
18624;DHT22;9441;51.420;7.036;2022-12-10T01:51:23;0.60;99.90
18624;DHT22;9441;51.420;7.036;2022-12-10T01:52:28;0.60;99.90
18624;DHT22;9441;51.420;7.036;2022-12-10T01:53:30;0.70;99.90
18624;DHT22;9441;51.420;7.036;2022-12-10T01:54:35;0.70;99.90
18624;DHT22;9441;51.420;7.036;2022-12-10T01:55:45;0.60;99.90
18624;DHT22;9441;51.420;7.036;2022-12-10T01:56:51;0.50;99.90
18624;DHT22;9441;51.420;7.036;2022-12-10T01:57:55;0.40;99.90
18624;DHT22;9441;51.420;7.036;2022-12-10T01:58:57;0.40;99.90
18624;DHT22;9441;51.420;7.036;2022-12-10T02:00:02;0.50;99.90
18624;DHT22;9441;51.420;7.036;2022-12-10T02:01:23;0.60;99.90
18624;DHT22;9441;51.420;7.036;2022-12-10T02:02:38;0.60;99.90
18624;DHT22;9441;51.420;7.036;2022-12-10T02:03:52;0.60;99.90
18624;DHT22;9441;51.420;7.036;2022-12-10T02:05:04;0.60;99.90
18624;DHT22;9441;51.420;7.036;2022-12-10T02:06:17;0.60;99.90
18624;DHT22;9441;51.420;7.036;2022-12-10T02:07:30;0.60;99.90
18624;DHT22;9441;51.420;7.036;2022-12-10T02:08:40;0.70;99.90
18624;DHT22;9441;51.420;7.036;2022-12-10T02:09:52;0.70;99.90
18624;DHT22;9441;51.420;7.036;2022-12-10T02:11:02;0.70;99.90
18624;DHT22;9441;51.420;7.036;2022-12-10T02:12:11;0.60;99.90
18624;DHT22;9441;51.420;7.036;2022-12-10T02:13:19;0.60;99.90
18624;DHT22;9441;51.420;7.036;2022-12-10T02:14:29;0.50;99.90
18624;DHT22;9441;51.420;7.036;2022-12-10T02:15:34;0.60;99.90
18624;DHT22;9441;51.420;7.036;2022-12-10T02:16:40;0.60;99.90
18624;DHT22;9441;51.420;7.036;2022-12-10T02:17:49;0.70;99.90
18624;DHT22;9441;51.420;7.036;2022-12-10T02:18:56;0.70;99.90
18624;DHT22;9441;51.420;7.036;2022-12-10T02:20:05;0.60;99.90
18624;DHT22;9441;51.420;7.036;2022-12-10T02:21:10;0.60;99.90
18624;DHT22;9441;51.420;7.036;2022-12-10T02:22:16;0.60;99.90
18624;DHT22;9441;51.420;7.036;2022-12-10T02:23:23;0.50;99.90
18624;DHT22;9441;51.420;7.036;2022-12-10T02:24:29;0.40;99.90
18624;DHT22;9441;51.420;7.036;2022-12-10T02:25:36;0.40;99.90
18624;DHT22;9441;51.420;7.036;2022-12-10T02:26:44;0.50;99.90
18624;DHT22;9441;51.420;7.036;2022-12-10T02:27:52;0.60;99.90
18624;DHT22;9441;51.420;7.036;2022-12-10T02:29:05;0.50;99.90
18624;DHT22;9441;51.420;7.036;2022-12-10T02:30:09;0.50;99.90
18624;DHT22;9441;51.420;7.036;2022-12-10T02:31:12;0.50;99.90
18624;DHT22;9441;51.420;7.036;2022-12-10T02:32:18;0.40;99.90
18624;DHT22;9441;51.420;7.036;2022-12-10T02:33:22;0.50;99.90
18624;DHT22;9441;51.420;7.036;2022-12-10T02:34:26;0.50;99.90
18624;DHT22;9441;51.420;7.036;2022-12-10T02:35:33;0.60;99.90
18624;DHT22;9441;51.420;7.036;2022-12-10T02:36:39;0.60;99.90
18624;DHT22;9441;51.420;7.036;2022-12-10T02:37:47;0.50;99.90
18624;DHT22;9441;51.420;7.036;2022-12-10T02:38:50;0.60;99.90
18624;DHT22;9441;51.420;7.036;2022-12-10T02:39:56;0.60;99.90
18624;DHT22;9441;51.420;7.036;2022-12-10T02:41:02;0.70;99.90
18624;DHT22;9441;51.420;7.036;2022-12-10T02:42:07;0.70;99.90
18624;DHT22;9441;51.420;7.036;2022-12-10T02:43:12;0.70;99.90
18624;DHT22;9441;51.420;7.036;2022-12-10T02:44:17;0.70;99.90
18624;DHT22;9441;51.420;7.036;2022-12-10T02:45:21;0.70;99.90
18624;DHT22;9441;51.420;7.036;2022-12-10T02:46:26;0.70;99.90
18624;DHT22;9441;51.420;7.036;2022-12-10T02:47:30;0.70;99.90
18624;DHT22;9441;51.420;7.036;2022-12-10T02:48:33;0.70;99.90
18624;DHT22;9441;51.420;7.036;2022-12-10T02:49:35;0.70;99.90
18624;DHT22;9441;51.420;7.036;2022-12-10T02:50:38;0.70;99.90
18624;DHT22;9441;51.420;7.036;2022-12-10T02:51:39;0.70;99.90
18624;DHT22;9441;51.420;7.036;2022-12-10T02:52:41;0.70;99.90
18624;DHT22;9441;51.420;7.036;2022-12-10T02:53:43;0.60;99.90
18624;DHT22;9441;51.420;7.036;2022-12-10T02:54:46;0.50;99.90
18624;DHT22;9441;51.420;7.036;2022-12-10T02:55:59;0.30;99.90
18624;DHT22;9441;51.420;7.036;2022-12-10T02:57:23;0.20;99.90
18624;DHT22;9441;51.420;7.036;2022-12-10T02:58:31;0.10;99.90
18624;DHT22;9441;51.420;7.036;2022-12-10T02:59:47;0.20;99.90
18624;DHT22;9441;51.420;7.036;2022-12-10T03:00:54;0.40;99.90
18624;DHT22;9441;51.420;7.036;2022-12-10T03:02:04;0.50;99.90
18624;DHT22;9441;51.420;7.036;2022-12-10T03:03:32;0.60;99.90
18624;DHT22;9441;51.420;7.036;2022-12-10T03:04:42;0.60;99.90
18624;DHT22;9441;51.420;7.036;2022-12-10T03:05:50;0.70;99.90
18624;DHT22;9441;51.420;7.036;2022-12-10T03:06:57;0.70;99.90
18624;DHT22;9441;51.420;7.036;2022-12-10T03:08:03;0.80;99.90
18624;DHT22;9441;51.420;7.036;2022-12-10T03:09:10;0.70;99.90
18624;DHT22;9441;51.420;7.036;2022-12-10T03:10:20;0.60;99.90
18624;DHT22;9441;51.420;7.036;2022-12-10T03:11:24;0.60;99.90
18624;DHT22;9441;51.420;7.036;2022-12-10T03:12:29;0.70;99.90
18624;DHT22;9441;51.420;7.036;2022-12-10T03:13:35;0.80;99.90
18624;DHT22;9441;51.420;7.036;2022-12-10T03:14:40;0.80;99.90
18624;DHT22;9441;51.420;7.036;2022-12-10T03:15:43;0.70;99.90
18624;DHT22;9441;51.420;7.036;2022-12-10T03:16:49;0.80;99.90
18624;DHT22;9441;51.420;7.036;2022-12-10T03:17:53;0.70;99.90
18624;DHT22;9441;51.420;7.036;2022-12-10T03:18:57;0.80;99.90
18624;DHT22;9441;51.420;7.036;2022-12-10T03:20:01;0.80;99.90
18624;DHT22;9441;51.420;7.036;2022-12-10T03:21:05;0.90;99.90
18624;DHT22;9441;51.420;7.036;2022-12-10T03:22:08;0.90;99.90
18624;DHT22;9441;51.420;7.036;2022-12-10T03:23:13;0.80;99.90
18624;DHT22;9441;51.420;7.036;2022-12-10T03:24:17;0.80;99.90
18624;DHT22;9441;51.420;7.036;2022-12-10T03:25:22;0.80;99.90
18624;DHT22;9441;51.420;7.036;2022-12-10T03:26:26;0.80;99.90
18624;DHT22;9441;51.420;7.036;2022-12-10T03:27:29;0.80;99.90
18624;DHT22;9441;51.420;7.036;2022-12-10T03:28:32;0.80;99.90
18624;DHT22;9441;51.420;7.036;2022-12-10T03:29:39;0.80;99.90
18624;DHT22;9441;51.420;7.036;2022-12-10T03:30:44;0.90;99.90
18624;DHT22;9441;51.420;7.036;2022-12-10T03:31:47;0.90;99.90
18624;DHT22;9441;51.420;7.036;2022-12-10T03:32:50;0.90;99.90
18624;DHT22;9441;51.420;7.036;2022-12-10T03:33:52;0.90;99.90
18624;DHT22;9441;51.420;7.036;2022-12-10T03:34:56;0.90;99.90
18624;DHT22;9441;51.420;7.036;2022-12-10T03:35:59;0.80;99.90
18624;DHT22;9441;51.420;7.036;2022-12-10T03:37:01;0.80;99.90
18624;DHT22;9441;51.420;7.036;2022-12-10T03:38:03;0.90;99.90
18624;DHT22;9441;51.420;7.036;2022-12-10T03:39:06;0.90;99.90
18624;DHT22;9441;51.420;7.036;2022-12-10T03:40:09;0.90;99.90
18624;DHT22;9441;51.420;7.036;2022-12-10T03:41:13;0.80;99.90
18624;DHT22;9441;51.420;7.036;2022-12-10T03:42:14;0.80;99.90
18624;DHT22;9441;51.420;7.036;2022-12-10T03:43:16;0.90;99.90
18624;DHT22;9441;51.420;7.036;2022-12-10T03:44:27;0.80;99.90
18624;DHT22;9441;51.420;7.036;2022-12-10T03:45:31;0.80;99.90
18624;DHT22;9441;51.420;7.036;2022-12-10T03:46:32;0.80;99.90
18624;DHT22;9441;51.420;7.036;2022-12-10T03:47:34;0.90;99.90
18624;DHT22;9441;51.420;7.036;2022-12-10T03:48:35;0.80;99.90
18624;DHT22;9441;51.420;7.036;2022-12-10T03:49:37;0.80;99.90
18624;DHT22;9441;51.420;7.036;2022-12-10T03:50:38;0.80;99.90
18624;DHT22;9441;51.420;7.036;2022-12-10T03:51:40;0.90;99.90
18624;DHT22;9441;51.420;7.036;2022-12-10T03:52:41;1.00;99.90
18624;DHT22;9441;51.420;7.036;2022-12-10T03:53:43;1.00;99.90
18624;DHT22;9441;51.420;7.036;2022-12-10T03:54:51;1.00;99.90
18624;DHT22;9441;51.420;7.036;2022-12-10T03:55:53;0.90;99.90
18624;DHT22;9441;51.420;7.036;2022-12-10T03:56:55;0.80;99.90
18624;DHT22;9441;51.420;7.036;2022-12-10T03:57:57;0.80;99.90
18624;DHT22;9441;51.420;7.036;2022-12-10T03:58:58;0.90;99.90
18624;DHT22;9441;51.420;7.036;2022-12-10T04:00:00;1.00;99.90
18624;DHT22;9441;51.420;7.036;2022-12-10T04:01:03;1.00;99.90
18624;DHT22;9441;51.420;7.036;2022-12-10T04:02:05;1.10;99.90
18624;DHT22;9441;51.420;7.036;2022-12-10T04:03:06;1.10;99.90
18624;DHT22;9441;51.420;7.036;2022-12-10T04:04:08;1.10;99.90
18624;DHT22;9441;51.420;7.036;2022-12-10T04:05:09;1.00;99.90
18624;DHT22;9441;51.420;7.036;2022-12-10T04:06:14;1.00;99.90
18624;DHT22;9441;51.420;7.036;2022-12-10T04:07:15;1.00;99.90
18624;DHT22;9441;51.420;7.036;2022-12-10T04:08:17;1.00;99.90
18624;DHT22;9441;51.420;7.036;2022-12-10T04:09:18;1.10;99.90
18624;DHT22;9441;51.420;7.036;2022-12-10T04:10:20;1.10;99.90
18624;DHT22;9441;51.420;7.036;2022-12-10T04:11:22;1.10;99.90
18624;DHT22;9441;51.420;7.036;2022-12-10T04:12:24;1.00;99.90
18624;DHT22;9441;51.420;7.036;2022-12-10T04:13:25;1.00;99.90
18624;DHT22;9441;51.420;7.036;2022-12-10T04:14:45;1.00;99.90
18624;DHT22;9441;51.420;7.036;2022-12-10T04:16:07;0.90;99.90
18624;DHT22;9441;51.420;7.036;2022-12-10T04:17:27;1.00;99.90
18624;DHT22;9441;51.420;7.036;2022-12-10T04:18:29;1.00;99.90
18624;DHT22;9441;51.420;7.036;2022-12-10T04:19:30;1.10;99.90
18624;DHT22;9441;51.420;7.036;2022-12-10T04:20:32;1.10;99.90
18624;DHT22;9441;51.420;7.036;2022-12-10T04:21:52;1.20;99.90
18624;DHT22;9441;51.420;7.036;2022-12-10T04:23:12;1.20;99.90
18624;DHT22;9441;51.420;7.036;2022-12-10T04:24:32;1.20;99.90
18624;DHT22;9441;51.420;7.036;2022-12-10T04:25:52;1.20;99.90
18624;DHT22;9441;51.420;7.036;2022-12-10T04:27:15;1.20;99.90
18624;DHT22;9441;51.420;7.036;2022-12-10T04:28:18;1.20;99.90
18624;DHT22;9441;51.420;7.036;2022-12-10T04:29:19;1.10;99.90
18624;DHT22;9441;51.420;7.036;2022-12-10T04:30:21;1.00;99.90
18624;DHT22;9441;51.420;7.036;2022-12-10T04:31:24;0.80;99.90
18624;DHT22;9441;51.420;7.036;2022-12-10T04:32:27;0.80;99.90
18624;DHT22;9441;51.420;7.036;2022-12-10T04:33:29;0.90;99.90
18624;DHT22;9441;51.420;7.036;2022-12-10T04:34:31;0.90;99.90
18624;DHT22;9441;51.420;7.036;2022-12-10T04:35:32;1.00;99.90
18624;DHT22;9441;51.420;7.036;2022-12-10T04:36:34;1.10;99.90
18624;DHT22;9441;51.420;7.036;2022-12-10T04:37:36;1.10;99.90
18624;DHT22;9441;51.420;7.036;2022-12-10T04:38:38;1.20;99.90
18624;DHT22;9441;51.420;7.036;2022-12-10T04:39:39;1.10;99.90
18624;DHT22;9441;51.420;7.036;2022-12-10T04:40:41;1.10;99.90
18624;DHT22;9441;51.420;7.036;2022-12-10T04:41:43;1.10;99.90
18624;DHT22;9441;51.420;7.036;2022-12-10T04:42:46;1.10;99.90
18624;DHT22;9441;51.420;7.036;2022-12-10T04:43:47;1.10;99.90
18624;DHT22;9441;51.420;7.036;2022-12-10T04:44:49;1.10;99.90
18624;DHT22;9441;51.420;7.036;2022-12-10T04:45:50;1.20;99.90
18624;DHT22;9441;51.420;7.036;2022-12-10T04:46:53;1.20;99.90
18624;DHT22;9441;51.420;7.036;2022-12-10T04:47:54;1.20;99.90
18624;DHT22;9441;51.420;7.036;2022-12-10T04:48:58;1.20;99.90
18624;DHT22;9441;51.420;7.036;2022-12-10T04:49:59;1.10;99.90
18624;DHT22;9441;51.420;7.036;2022-12-10T04:51:01;1.10;99.90
18624;DHT22;9441;51.420;7.036;2022-12-10T04:52:03;1.20;99.90
18624;DHT22;9441;51.420;7.036;2022-12-10T04:53:05;1.20;99.90
18624;DHT22;9441;51.420;7.036;2022-12-10T04:54:07;1.10;99.90
18624;DHT22;9441;51.420;7.036;2022-12-10T04:55:10;1.00;99.90
18624;DHT22;9441;51.420;7.036;2022-12-10T04:56:11;1.00;99.90
18624;DHT22;9441;51.420;7.036;2022-12-10T04:57:13;1.00;99.90
18624;DHT22;9441;51.420;7.036;2022-12-10T04:58:14;1.00;99.90
18624;DHT22;9441;51.420;7.036;2022-12-10T04:59:16;1.00;99.90
18624;DHT22;9441;51.420;7.036;2022-12-10T05:00:18;1.00;99.90
18624;DHT22;9441;51.420;7.036;2022-12-10T05:01:20;1.00;99.90
18624;DHT22;9441;51.420;7.036;2022-12-10T05:02:22;1.00;99.90
18624;DHT22;9441;51.420;7.036;2022-12-10T05:03:24;0.90;99.90
18624;DHT22;9441;51.420;7.036;2022-12-10T05:04:25;0.90;99.90
18624;DHT22;9441;51.420;7.036;2022-12-10T05:05:27;0.90;99.90
18624;DHT22;9441;51.420;7.036;2022-12-10T05:06:29;0.90;99.90
18624;DHT22;9441;51.420;7.036;2022-12-10T05:07:32;1.00;99.90
18624;DHT22;9441;51.420;7.036;2022-12-10T05:08:34;1.00;99.90
18624;DHT22;9441;51.420;7.036;2022-12-10T05:09:37;1.00;99.90
18624;DHT22;9441;51.420;7.036;2022-12-10T05:10:38;0.90;99.90
18624;DHT22;9441;51.420;7.036;2022-12-10T05:11:40;0.90;99.90
18624;DHT22;9441;51.420;7.036;2022-12-10T05:12:41;0.90;99.90
18624;DHT22;9441;51.420;7.036;2022-12-10T05:13:44;0.90;99.90
18624;DHT22;9441;51.420;7.036;2022-12-10T05:14:45;0.90;99.90
18624;DHT22;9441;51.420;7.036;2022-12-10T05:15:47;0.80;99.90
18624;DHT22;9441;51.420;7.036;2022-12-10T05:16:49;0.80;99.90
18624;DHT22;9441;51.420;7.036;2022-12-10T05:17:53;0.90;99.90
18624;DHT22;9441;51.420;7.036;2022-12-10T05:18:55;0.80;99.90
18624;DHT22;9441;51.420;7.036;2022-12-10T05:19:57;0.80;99.90
18624;DHT22;9441;51.420;7.036;2022-12-10T05:20:59;0.80;99.90
18624;DHT22;9441;51.420;7.036;2022-12-10T05:22:01;0.70;99.90
18624;DHT22;9441;51.420;7.036;2022-12-10T05:23:21;0.60;99.90
18624;DHT22;9441;51.420;7.036;2022-12-10T05:24:31;0.60;99.90
18624;DHT22;9441;51.420;7.036;2022-12-10T05:25:32;0.60;99.90
18624;DHT22;9441;51.420;7.036;2022-12-10T05:26:53;0.50;99.90
18624;DHT22;9441;51.420;7.036;2022-12-10T05:27:54;0.60;99.90
18624;DHT22;9441;51.420;7.036;2022-12-10T05:28:56;0.70;99.90
18624;DHT22;9441;51.420;7.036;2022-12-10T05:29:57;0.70;99.90
18624;DHT22;9441;51.420;7.036;2022-12-10T05:31:00;0.70;99.90
18624;DHT22;9441;51.420;7.036;2022-12-10T05:32:02;0.70;99.90
18624;DHT22;9441;51.420;7.036;2022-12-10T05:33:06;0.50;99.90
18624;DHT22;9441;51.420;7.036;2022-12-10T05:34:08;0.40;99.90
18624;DHT22;9441;51.420;7.036;2022-12-10T05:35:11;0.20;99.90
18624;DHT22;9441;51.420;7.036;2022-12-10T05:36:14;0.30;99.90
18624;DHT22;9441;51.420;7.036;2022-12-10T05:37:16;0.30;99.90
18624;DHT22;9441;51.420;7.036;2022-12-10T05:38:17;0.40;99.90
18624;DHT22;9441;51.420;7.036;2022-12-10T05:39:19;0.40;99.90
18624;DHT22;9441;51.420;7.036;2022-12-10T05:40:21;0.30;99.90
18624;DHT22;9441;51.420;7.036;2022-12-10T05:41:24;0.30;99.90
18624;DHT22;9441;51.420;7.036;2022-12-10T05:42:26;0.30;99.90
18624;DHT22;9441;51.420;7.036;2022-12-10T05:43:29;0.30;99.90
18624;DHT22;9441;51.420;7.036;2022-12-10T05:44:31;0.20;99.90
18624;DHT22;9441;51.420;7.036;2022-12-10T05:45:32;0.20;99.90
18624;DHT22;9441;51.420;7.036;2022-12-10T05:46:35;0.20;99.90
18624;DHT22;9441;51.420;7.036;2022-12-10T05:47:36;0.30;99.90
18624;DHT22;9441;51.420;7.036;2022-12-10T05:48:40;0.30;99.90
18624;DHT22;9441;51.420;7.036;2022-12-10T05:49:41;0.30;99.90
18624;DHT22;9441;51.420;7.036;2022-12-10T05:50:43;0.40;99.90
18624;DHT22;9441;51.420;7.036;2022-12-10T05:51:44;0.40;99.90
18624;DHT22;9441;51.420;7.036;2022-12-10T05:52:46;0.40;99.90
18624;DHT22;9441;51.420;7.036;2022-12-10T05:53:48;0.40;99.90
18624;DHT22;9441;51.420;7.036;2022-12-10T05:54:50;0.20;99.90
18624;DHT22;9441;51.420;7.036;2022-12-10T05:55:59;0.00;99.90
18624;DHT22;9441;51.420;7.036;2022-12-10T05:57:01;0.00;99.90
18624;DHT22;9441;51.420;7.036;2022-12-10T05:58:02;0.10;99.90
18624;DHT22;9441;51.420;7.036;2022-12-10T05:59:05;0.10;99.90
18624;DHT22;9441;51.420;7.036;2022-12-10T06:00:07;0.10;99.90
18624;DHT22;9441;51.420;7.036;2022-12-10T06:01:14;0.00;99.90
18624;DHT22;9441;51.420;7.036;2022-12-10T06:02:16;0.10;99.90
18624;DHT22;9441;51.420;7.036;2022-12-10T06:03:18;0.10;99.90
18624;DHT22;9441;51.420;7.036;2022-12-10T06:04:20;0.10;99.90
18624;DHT22;9441;51.420;7.036;2022-12-10T06:05:22;0.10;99.90
18624;DHT22;9441;51.420;7.036;2022-12-10T06:06:25;0.00;99.90
18624;DHT22;9441;51.420;7.036;2022-12-10T06:07:29;-0.10;99.90
18624;DHT22;9441;51.420;7.036;2022-12-10T06:08:30;0.00;99.90
18624;DHT22;9441;51.420;7.036;2022-12-10T06:09:32;0.00;99.90
18624;DHT22;9441;51.420;7.036;2022-12-10T06:10:35;-0.10;99.90
18624;DHT22;9441;51.420;7.036;2022-12-10T06:11:36;0.00;99.90
18624;DHT22;9441;51.420;7.036;2022-12-10T06:12:38;0.00;99.90
18624;DHT22;9441;51.420;7.036;2022-12-10T06:13:39;0.10;99.90
18624;DHT22;9441;51.420;7.036;2022-12-10T06:14:41;0.10;99.90
18624;DHT22;9441;51.420;7.036;2022-12-10T06:15:43;-0.10;99.90
18624;DHT22;9441;51.420;7.036;2022-12-10T06:16:44;-0.20;99.90
18624;DHT22;9441;51.420;7.036;2022-12-10T06:17:46;-0.20;99.90
18624;DHT22;9441;51.420;7.036;2022-12-10T06:18:47;-0.20;99.90
18624;DHT22;9441;51.420;7.036;2022-12-10T06:19:52;-0.30;99.90
18624;DHT22;9441;51.420;7.036;2022-12-10T06:20:53;-0.40;99.90
18624;DHT22;9441;51.420;7.036;2022-12-10T06:21:55;-0.40;99.90
18624;DHT22;9441;51.420;7.036;2022-12-10T06:22:56;-0.40;99.90
18624;DHT22;9441;51.420;7.036;2022-12-10T06:23:58;-0.30;99.90
18624;DHT22;9441;51.420;7.036;2022-12-10T06:24:59;-0.30;99.90
18624;DHT22;9441;51.420;7.036;2022-12-10T06:26:03;-0.30;99.90
18624;DHT22;9441;51.420;7.036;2022-12-10T06:27:04;-0.30;99.90
18624;DHT22;9441;51.420;7.036;2022-12-10T06:28:07;-0.30;99.90
18624;DHT22;9441;51.420;7.036;2022-12-10T06:29:09;-0.30;99.90
18624;DHT22;9441;51.420;7.036;2022-12-10T06:30:11;-0.30;99.90
18624;DHT22;9441;51.420;7.036;2022-12-10T06:31:12;-0.20;99.90
18624;DHT22;9441;51.420;7.036;2022-12-10T06:32:15;-0.20;99.90
18624;DHT22;9441;51.420;7.036;2022-12-10T06:33:16;-0.10;99.90
18624;DHT22;9441;51.420;7.036;2022-12-10T06:34:18;-0.20;99.90
18624;DHT22;9441;51.420;7.036;2022-12-10T06:35:20;-0.20;99.90
18624;DHT22;9441;51.420;7.036;2022-12-10T06:36:22;-0.10;99.90
18624;DHT22;9441;51.420;7.036;2022-12-10T06:37:23;-0.30;99.90
18624;DHT22;9441;51.420;7.036;2022-12-10T06:38:25;-0.30;99.90
18624;DHT22;9441;51.420;7.036;2022-12-10T06:39:26;-0.40;99.90
18624;DHT22;9441;51.420;7.036;2022-12-10T06:40:28;-0.20;99.90
18624;DHT22;9441;51.420;7.036;2022-12-10T06:41:29;-0.30;99.90
18624;DHT22;9441;51.420;7.036;2022-12-10T06:42:32;-0.30;99.90
18624;DHT22;9441;51.420;7.036;2022-12-10T06:43:33;-0.20;99.90
18624;DHT22;9441;51.420;7.036;2022-12-10T06:44:35;-0.30;99.90
18624;DHT22;9441;51.420;7.036;2022-12-10T06:45:55;0.30;99.90
18624;DHT22;9441;51.420;7.036;2022-12-10T06:46:57;0.50;99.90
18624;DHT22;9441;51.420;7.036;2022-12-10T06:47:58;0.70;99.90
18624;DHT22;9441;51.420;7.036;2022-12-10T06:49:00;0.60;99.90
18624;DHT22;9441;51.420;7.036;2022-12-10T06:50:01;0.90;99.90
18624;DHT22;9441;51.420;7.036;2022-12-10T06:51:05;1.30;99.90
18624;DHT22;9441;51.420;7.036;2022-12-10T06:52:06;1.20;99.90
18624;DHT22;9441;51.420;7.036;2022-12-10T06:53:10;0.80;99.90
18624;DHT22;9441;51.420;7.036;2022-12-10T06:54:11;0.90;99.90
18624;DHT22;9441;51.420;7.036;2022-12-10T06:55:13;1.00;99.90
18624;DHT22;9441;51.420;7.036;2022-12-10T06:56:17;0.90;99.90
18624;DHT22;9441;51.420;7.036;2022-12-10T06:57:20;0.50;99.90